Time;durP1;ratioP1;P1;durP2;ratioP2;P2;SDS_P1;SDS_P2;PMS_P1;PMS_P2;Temp;Humidity;BMP_temperature;BMP_pressure;BME280_temperature;BME280_humidity;BME280_pressure;Samples;Min_cycle;Max_cycle;Signal;HPM_P1;HPM_P2
2022/07/31 00:02:31;;;;;;;3.10;1.92;;;;;;;29.37;42.07;99814.09;5398636;23;20050;-90
2022/07/31 00:05:00;;;;;;;2.85;1.95;;;;;;;29.36;41.60;99807.03;4998275;28;20034;-91
2022/07/31 00:10:52;;;;;;;3.00;1.90;;;;;;;29.34;41.75;99803.59;5494363;23;20055;-90
2022/07/31 00:13:37;;;;;;;3.55;2.08;;;;;;;29.32;41.83;99816.34;4983643;28;20051;-89
2022/07/31 00:16:15;;;;;;;3.35;2.30;;;;;;;29.32;41.89;99819.03;5001418;28;20094;-90
2022/07/31 00:19:04;;;;;;;3.67;2.47;;;;;;;29.31;41.89;99814.66;4967400;28;20027;-89
2022/07/31 00:22:17;;;;;;;2.97;2.17;;;;;;;29.29;42.01;99822.03;4990283;28;20038;-90
2022/07/31 00:27:40;;;;;;;3.67;2.33;;;;;;;29.27;41.92;99829.34;5018554;28;20046;-90
2022/07/31 00:30:16;;;;;;;2.92;2.05;;;;;;;29.25;41.71;99832.19;5020846;28;20033;-90
2022/07/31 00:42:50;;;;;;;4.07;2.22;;;;;;;29.18;42.02;99823.84;5019182;28;20093;-90
2022/07/31 00:45:19;;;;;;;2.95;1.88;;;;;;;29.16;41.95;99833.88;5019951;28;20157;-90
2022/07/31 00:48:09;;;;;;;2.78;2.03;;;;;;;29.17;42.09;99834.72;5019686;28;20077;-91
2022/07/31 00:51:04;;;;;;;2.88;1.95;;;;;;;29.16;41.88;99833.88;5019384;28;20026;-91
2022/07/31 01:05:13;;;;;;;2.67;1.88;;;;;;;29.11;42.13;99844.19;5540558;23;20043;-92
2022/07/31 01:11:38;;;;;;;2.97;2.10;;;;;;;29.09;42.26;99832.72;5001041;28;20086;-89
2022/07/31 01:14:06;;;;;;;3.67;2.25;;;;;;;29.08;42.44;99836.41;4984379;28;20015;-90
2022/07/31 01:16:52;;;;;;;2.75;2.05;;;;;;;29.06;42.15;99833.84;5008953;23;20097;-91
2022/07/31 01:31:27;;;;;;;2.87;2.17;;;;;;;29.02;42.54;99820.84;1794959;23;20289;-95
2022/07/31 01:37:52;;;;;;;3.42;2.22;;;;;;;29.00;42.51;99804.00;5125106;23;20532;-90
2022/07/31 01:41:01;;;;;;;3.88;2.45;;;;;;;28.99;42.19;99803.16;5012234;23;20042;-92
2022/07/31 01:43:54;;;;;;;4.15;2.30;;;;;;;29.00;42.19;99798.66;5280084;23;20042;-90
2022/07/31 01:46:22;;;;;;;3.33;2.47;;;;;;;28.98;42.32;99792.53;4999383;28;20035;-90
2022/07/31 01:52:11;;;;;;;2.83;2.17;;;;;;;28.96;42.32;99790.00;4998479;28;20073;-91
2022/07/31 01:55:03;;;;;;;3.22;2.50;;;;;;;28.96;42.60;99783.78;4998370;28;20022;-91
2022/07/31 01:57:34;;;;;;;2.67;2.10;;;;;;;28.93;42.37;99780.41;4999406;28;20018;-92
2022/07/31 02:00:29;;;;;;;3.40;2.33;;;;;;;28.93;42.62;99769.66;4999384;28;20062;-91
2022/07/31 02:03:02;;;;;;;3.13;2.40;;;;;;;28.91;42.68;99766.25;4998982;28;20059;-90
2022/07/31 02:08:52;;;;;;;3.58;2.50;;;;;;;28.91;42.63;99771.59;5035951;28;20098;-90
2022/07/31 02:46:49;;;;;;;4.38;2.60;;;;;;;28.79;42.92;99762.81;5035093;28;20034;-90
2022/07/31 02:49:46;;;;;;;3.47;2.58;;;;;;;28.79;43.00;99770.00;5038749;28;20018;-90
2022/07/31 02:52:20;;;;;;;3.78;2.38;;;;;;;28.77;42.54;99766.63;5021828;28;20025;-91
2022/07/31 03:10:03;;;;;;;3.00;2.03;;;;;;;28.73;42.81;99759.81;3787041;23;20297;-96
2022/07/31 03:15:21;;;;;;;3.60;2.57;;;;;;;28.70;42.71;99746.69;5171899;23;20038;-91
2022/07/31 03:20:40;;;;;;;3.20;2.10;;;;;;;28.68;42.65;99747.63;5282747;23;20042;-90
2022/07/31 03:23:14;;;;;;;3.05;2.15;;;;;;;28.67;42.94;99740.56;5038671;23;20288;-90
2022/07/31 03:25:41;;;;;;;2.88;1.88;;;;;;;28.67;42.50;99743.25;5345236;23;21559;-90
2022/07/31 03:28:10;;;;;;;4.10;2.30;;;;;;;28.64;42.84;99740.88;4985762;28;20031;-91
2022/07/31 03:37:04;;;;;;;2.92;2.10;;;;;;;28.62;42.65;99748.19;5172283;23;20046;-90
2022/07/31 03:39:31;;;;;;;2.75;1.92;;;;;;;28.60;42.79;99747.50;5016057;28;20027;-90
2022/07/31 03:48:14;;;;;;;3.03;2.10;;;;;;;28.56;43.16;99740.69;5280355;23;20057;-91
2022/07/31 03:51:09;;;;;;;3.05;2.17;;;;;;;28.57;43.05;99742.38;5343628;23;20034;-90
2022/07/31 03:59:56;;;;;;;3.42;2.28;;;;;;;28.55;42.91;99728.25;5465028;23;20299;-90
2022/07/31 04:03:17;;;;;;;2.70;2.20;;;;;;;28.55;43.02;99736.31;5273270;23;20046;-91
2022/07/31 04:14:04;;;;;;;3.55;2.40;;;;;;;28.50;43.08;99730.50;5212353;23;20340;-91
2022/07/31 04:16:33;;;;;;;3.28;1.75;;;;;;;28.49;43.02;99728.81;5001271;28;20019;-91
2022/07/31 04:19:07;;;;;;;2.80;2.17;;;;;;;28.48;43.17;99727.94;5015627;28;20045;-91
2022/07/31 04:21:41;;;;;;;3.28;2.33;;;;;;;28.49;43.30;99723.44;5019773;28;20026;-92
2022/07/31 04:30:01;;;;;;;2.97;2.10;;;;;;;28.47;43.58;99720.06;4922068;28;20283;-91
2022/07/31 06:14:18;;;;;;;3.67;2.38;;;;;;;28.33;43.39;99762.34;5113470;23;20042;-90
2022/07/31 06:20:14;;;;;;;3.67;2.35;;;;;;;28.32;43.49;99768.72;5011302;23;20070;-90
2022/07/31 06:33:54;;;;;;;3.47;2.22;;;;;;;28.33;43.85;99783.00;5085353;23;20074;-92
2022/07/31 06:36:21;;;;;;;3.38;2.28;;;;;;;28.33;43.56;99786.50;4956419;28;20050;-91
2022/07/31 06:39:02;;;;;;;4.28;2.30;;;;;;;28.34;43.73;99785.56;5026439;23;20056;-90
2022/07/31 06:44:42;;;;;;;4.10;2.42;;;;;;;28.35;43.64;99787.25;5003398;28;20094;-92
2022/07/31 06:50:54;;;;;;;3.03;2.20;;;;;;;28.36;43.53;99788.94;4977818;29;20046;-91
2022/07/31 06:53:25;;;;;;;4.25;2.17;;;;;;;28.35;43.67;99791.75;4962176;28;20022;-91
2022/07/31 06:56:14;;;;;;;3.65;2.03;;;;;;;28.34;43.84;99792.75;4957296;28;20026;-91
2022/07/31 07:04:41;;;;;;;3.50;1.92;;;;;;;28.37;43.86;99790.63;1113479;23;20316;-91
2022/07/31 07:07:15;;;;;;;2.92;1.92;;;;;;;28.37;43.89;99790.63;5050428;23;20042;-90
2022/07/31 07:09:42;;;;;;;3.88;2.42;;;;;;;28.39;43.96;99791.34;5001999;28;20022;-91
2022/07/31 07:15:03;;;;;;;3.67;2.17;;;;;;;28.41;43.66;99791.22;5104817;23;20046;-91
2022/07/31 07:17:31;;;;;;;3.70;2.22;;;;;;;28.43;43.76;99785.72;4985491;28;20026;-91
2022/07/31 07:20:01;;;;;;;2.90;2.20;;;;;;;28.41;43.57;99786.72;5128245;23;20046;-90
2022/07/31 07:22:38;;;;;;;4.05;2.63;;;;;;;28.44;43.32;99790.97;5002213;28;20118;-90
2022/07/31 07:25:06;;;;;;;3.45;2.10;;;;;;;28.46;43.55;99793.50;5022666;23;20051;-90
2022/07/31 07:27:32;;;;;;;4.13;2.55;;;;;;;28.45;43.59;99794.47;5002403;28;20062;-90
2022/07/31 07:30:01;;;;;;;6.63;2.40;;;;;;;28.45;43.56;99798.00;4985241;28;20030;-93
2022/07/31 07:39:14;;;;;;;4.35;2.60;;;;;;;28.49;43.71;99795.91;5001625;28;20038;-91
2022/07/31 07:42:01;;;;;;;3.55;2.55;;;;;;;28.50;43.68;99800.28;4990932;28;20139;-92
2022/07/31 07:44:57;;;;;;;5.13;2.72;;;;;;;28.49;43.71;99798.59;4969607;28;20078;-90
2022/07/31 07:47:42;;;;;;;4.60;2.75;;;;;;;28.51;43.52;99791.25;4984643;28;20050;-91
2022/07/31 07:50:19;;;;;;;5.03;2.92;;;;;;;28.51;43.44;99791.25;5000172;28;20065;-90
2022/07/31 07:55:21;;;;;;;4.80;2.77;;;;;;;28.53;43.39;99795.50;5074914;23;20058;-89
2022/07/31 07:58:05;;;;;;;4.03;2.22;;;;;;;28.55;43.45;99781.94;4987327;28;20290;-91
2022/07/31 08:00:32;;;;;;;3.05;2.30;;;;;;;28.56;43.58;99780.94;5006180;28;20024;-90
2022/07/31 08:03:06;;;;;;;4.05;2.50;;;;;;;28.57;43.53;99788.00;5003891;28;20030;-92
2022/07/31 08:05:32;;;;;;;4.03;2.78;;;;;;;28.60;43.43;99789.59;5003835;28;20106;-91
2022/07/31 08:08:08;;;;;;;4.13;2.70;;;;;;;28.61;43.36;99788.63;5003034;28;20018;-90
2022/07/31 08:10:38;;;;;;;4.32;2.63;;;;;;;28.63;43.20;99792.00;5020776;28;20018;-90
2022/07/31 08:13:04;;;;;;;4.15;2.47;;;;;;;28.61;43.07;99786.75;5004129;28;20037;-90
2022/07/31 08:18:07;;;;;;;3.63;2.83;;;;;;;28.64;42.94;99791.88;5131122;23;20087;-90
2022/07/31 08:20:35;;;;;;;4.47;2.72;;;;;;;28.66;42.81;99794.41;4999094;28;20290;-90
2022/07/31 08:23:01;;;;;;;4.43;2.60;;;;;;;28.67;42.93;99788.91;4967614;28;20031;-90
2022/07/31 08:25:30;;;;;;;4.32;2.28;;;;;;;28.68;43.05;99787.91;5002303;28;20045;-90
2022/07/31 08:27:56;;;;;;;3.22;2.35;;;;;;;28.71;43.08;99791.34;5002122;28;20038;-90
2022/07/31 08:30:24;;;;;;;5.65;3.00;;;;;;;28.72;43.01;99791.19;5002947;28;20019;-90
2022/07/31 08:32:50;;;;;;;4.35;2.70;;;;;;;28.74;43.01;99791.03;4987353;28;20017;-90
2022/07/31 08:35:19;;;;;;;3.35;2.42;;;;;;;28.75;43.17;99787.38;5020043;28;20030;-90
2022/07/31 08:37:46;;;;;;;3.70;2.40;;;;;;;28.77;42.83;99796.16;5003193;28;20026;-90
2022/07/31 08:40:17;;;;;;;4.43;2.40;;;;;;;28.78;43.03;99795.16;5003530;28;20045;-91
2022/07/31 08:42:45;;;;;;;4.07;2.67;;;;;;;28.80;43.08;99790.50;5001336;28;20037;-91
2022/07/31 08:45:12;;;;;;;5.45;2.30;;;;;;;28.80;42.61;99793.19;5002591;28;20022;-91
2022/07/31 08:47:43;;;;;;;4.00;2.42;;;;;;;28.83;43.01;99794.75;4986502;28;20034;-90
2022/07/31 08:50:15;;;;;;;4.50;2.58;;;;;;;28.84;42.96;99796.44;5002686;28;20014;-92
2022/07/31 08:52:44;;;;;;;3.33;2.50;;;;;;;28.85;42.88;99796.31;5001855;28;20118;-91
2022/07/31 08:55:11;;;;;;;3.08;2.25;;;;;;;28.86;42.78;99795.34;5013990;28;20014;-90
2022/07/31 08:57:38;;;;;;;3.47;2.40;;;;;;;28.87;42.73;99802.44;5002234;28;20010;-90
2022/07/31 09:00:11;;;;;;;3.08;2.30;;;;;;;28.90;42.45;99812.88;5002334;28;20057;-90
2022/07/31 09:02:43;;;;;;;3.50;2.50;;;;;;;28.90;42.43;99791.41;5015776;28;20050;-91
2022/07/31 09:05:12;;;;;;;3.63;2.38;;;;;;;28.92;42.36;99800.16;5018601;28;20021;-90
2022/07/31 09:07:53;;;;;;;2.90;2.25;;;;;;;28.94;42.58;99789.28;5001819;28;20054;-90
2022/07/31 09:10:33;;;;;;;3.10;2.17;;;;;;;28.94;42.44;99792.84;5000034;28;20383;-92
2022/07/31 09:13:17;;;;;;;4.80;2.40;;;;;;;28.98;42.67;99789.84;5001088;28;20034;-90
2022/07/31 09:15:46;;;;;;;2.80;2.20;;;;;;;29.00;42.58;99795.97;5000011;28;20046;-92
2022/07/31 09:18:21;;;;;;;3.75;2.30;;;;;;;29.02;42.40;99793.97;4996234;28;20046;-92
2022/07/31 09:20:55;;;;;;;2.83;1.98;;;;;;;29.04;42.56;99797.34;4995501;28;20026;-91
2022/07/31 09:23:22;;;;;;;3.92;2.40;;;;;;;29.06;42.22;99801.59;4996889;28;20086;-91
2022/07/31 09:25:58;;;;;;;2.70;2.17;;;;;;;29.06;42.21;99793.53;4997641;28;20027;-91
2022/07/31 09:28:38;;;;;;;3.17;2.17;;;;;;;29.09;42.31;99797.78;4997627;28;20026;-91
2022/07/31 09:31:06;;;;;;;3.92;1.98;;;;;;;29.10;41.96;99793.28;4996511;28;20033;-91
2022/07/31 09:33:35;;;;;;;3.20;2.22;;;;;;;29.13;42.12;99793.00;4995617;28;20098;-91
2022/07/31 09:36:03;;;;;;;2.25;1.55;;;;;;;29.14;42.17;99792.03;4996798;28;20054;-91
2022/07/31 09:38:31;;;;;;;3.05;2.05;;;;;;;29.16;42.43;99796.28;4996268;28;20502;-91
2022/07/31 09:41:09;;;;;;;3.63;2.42;;;;;;;29.19;42.09;99798.66;4995534;28;20034;-92
2022/07/31 09:43:36;;;;;;;4.20;2.80;;;;;;;29.19;42.20;99790.59;4995740;28;20045;-91
2022/07/31 09:46:04;;;;;;;3.88;2.58;;;;;;;29.21;42.23;99794.00;4996708;28;20042;-91
2022/07/31 09:49:07;;;;;;;3.65;2.60;;;;;;;29.25;42.07;99788.34;4980666;28;20045;-90
2022/07/31 09:52:03;;;;;;;3.72;2.38;;;;;;;29.28;41.79;99788.03;4984164;28;20035;-91
2022/07/31 09:55:18;;;;;;;3.10;1.95;;;;;;;29.31;41.66;99795.84;4996136;28;20031;-91
2022/07/31 09:58:00;;;;;;;3.13;2.20;;;;;;;29.32;41.97;99792.16;4996022;28;20043;-92
2022/07/31 10:00:27;;;;;;;3.42;2.35;;;;;;;29.36;41.80;99793.59;4997167;28;20046;-91
2022/07/31 10:02:54;;;;;;;4.07;2.40;;;;;;;29.37;42.03;99787.22;4996456;28;20007;-91
2022/07/31 10:05:25;;;;;;;3.22;2.25;;;;;;;29.40;42.09;99797.69;4996137;28;20078;-90
2022/07/31 10:07:55;;;;;;;2.72;2.13;;;;;;;29.41;41.57;99788.63;4995235;28;20054;-91
2022/07/31 10:10:21;;;;;;;3.15;2.33;;;;;;;29.44;41.73;99787.50;4995126;28;20026;-91
2022/07/31 10:13:07;;;;;;;3.33;2.22;;;;;;;29.47;41.71;99780.00;4994999;28;20047;-91
2022/07/31 10:15:36;;;;;;;2.75;2.08;;;;;;;29.50;41.88;99775.34;4994890;28;20030;-91
2022/07/31 10:18:08;;;;;;;3.75;2.80;;;;;;;29.53;41.35;99780.47;4994929;28;20051;-91
2022/07/31 10:20:41;;;;;;;3.50;2.20;;;;;;;29.55;41.70;99781.16;4995310;28;20022;-90
2022/07/31 10:23:15;;;;;;;3.47;2.17;;;;;;;29.57;41.56;99781.84;4995476;28;20030;-90
2022/07/31 10:25:47;;;;;;;3.72;2.10;;;;;;;29.60;41.54;99776.22;4995366;28;20046;-90
2022/07/31 10:28:14;;;;;;;3.15;1.98;;;;;;;29.63;41.29;99780.44;4995320;28;20042;-92
2022/07/31 10:30:45;;;;;;;3.55;2.30;;;;;;;29.64;41.49;99769.56;4994318;28;20041;-91
2022/07/31 10:33:14;;;;;;;3.08;2.05;;;;;;;29.66;41.50;99759.50;4994517;28;20038;-91
2022/07/31 10:36:14;;;;;;;3.05;1.95;;;;;;;29.68;41.13;99760.19;4995988;28;20046;-90
2022/07/31 10:39:07;;;;;;;3.63;2.20;;;;;;;29.73;41.32;99765.16;4981541;28;20101;-91
2022/07/31 10:41:51;;;;;;;2.65;1.80;;;;;;;29.73;41.49;99743.66;4993493;28;20125;-90
2022/07/31 10:44:44;;;;;;;3.28;2.00;;;;;;;29.76;41.31;99754.09;4994248;28;20098;-90
2022/07/31 10:47:14;;;;;;;2.92;2.00;;;;;;;29.79;41.03;99759.19;4995345;28;20050;-90
2022/07/31 10:49:47;;;;;;;3.10;2.03;;;;;;;29.81;41.50;99746.44;4995901;28;20023;-91
2022/07/31 10:52:14;;;;;;;2.78;1.95;;;;;;;29.83;41.09;99754.38;4994845;28;20038;-93
2022/07/31 10:54:49;;;;;;;2.30;1.73;;;;;;;29.84;41.06;99750.69;4999932;28;20033;-91
2022/07/31 10:57:38;;;;;;;2.35;1.73;;;;;;;29.87;41.08;99753.94;4983425;28;20058;-91
2022/07/31 11:00:24;;;;;;;2.80;1.92;;;;;;;29.88;41.19;99742.16;5000279;28;20022;-90
2022/07/31 11:02:50;;;;;;;2.60;1.70;;;;;;;29.91;41.16;99741.03;4999911;28;20046;-92
2022/07/31 11:05:21;;;;;;;3.00;2.03;;;;;;;29.92;40.86;99731.97;4999426;28;20034;-91
2022/07/31 11:08:00;;;;;;;3.88;2.28;;;;;;;29.97;40.76;99735.06;4998653;28;20038;-91
2022/07/31 11:10:26;;;;;;;2.95;1.60;;;;;;;29.97;41.02;99740.44;4999748;28;20046;-92
2022/07/31 11:13:12;;;;;;;2.72;1.70;;;;;;;29.99;40.76;99732.25;4999999;28;20027;-92
2022/07/31 11:15:38;;;;;;;3.08;1.88;;;;;;;30.01;40.99;99732.94;4982690;28;20054;-92
2022/07/31 11:18:17;;;;;;;2.38;1.70;;;;;;;30.02;40.86;99722.03;5015541;28;20038;-90
2022/07/31 11:21:05;;;;;;;2.95;1.92;;;;;;;30.06;40.78;99727.13;5003224;28;20034;-91
2022/07/31 11:23:32;;;;;;;2.25;1.60;;;;;;;30.08;40.92;99717.06;5002252;28;20030;-91
2022/07/31 11:26:06;;;;;;;2.90;1.90;;;;;;;30.10;40.86;99717.78;5002672;28;20082;-91
2022/07/31 11:28:43;;;;;;;2.63;1.63;;;;;;;30.13;40.88;99720.19;5002905;28;20048;-91
2022/07/31 11:31:09;;;;;;;2.95;2.03;;;;;;;30.14;41.01;99720.03;4986762;28;20022;-91
2022/07/31 11:33:43;;;;;;;2.33;1.42;;;;;;;30.16;41.05;99703.72;5019316;28;20018;-91
2022/07/31 11:36:20;;;;;;;2.80;1.88;;;;;;;30.18;40.68;99704.44;5002669;28;20086;-91
2022/07/31 11:38:52;;;;;;;2.30;1.60;;;;;;;30.20;40.80;99701.59;5002221;28;20094;-91
2022/07/31 11:41:28;;;;;;;2.55;1.60;;;;;;;30.22;40.80;99697.75;5001788;28;20090;-92
2022/07/31 11:43:56;;;;;;;2.42;1.50;;;;;;;30.23;40.92;99702.16;5002503;28;20035;-91
2022/07/31 11:46:36;;;;;;;2.33;1.60;;;;;;;30.25;40.66;99692.09;5002708;28;20118;-91
2022/07/31 11:49:06;;;;;;;1.85;1.35;;;;;;;30.28;40.50;99694.47;5019253;28;20022;-91
2022/07/31 11:51:32;;;;;;;2.22;1.45;;;;;;;30.30;40.59;99690.81;4986107;28;20425;-91
2022/07/31 11:53:59;;;;;;;2.53;1.60;;;;;;;30.32;40.51;99689.66;5001583;28;20101;-91
2022/07/31 11:56:29;;;;;;;2.05;1.55;;;;;;;30.33;40.93;99685.97;5001569;28;20037;-90
2022/07/31 11:58:57;;;;;;;2.10;1.23;;;;;;;30.36;40.79;99684.81;5002262;28;20026;-91
2022/07/31 12:01:56;;;;;;;2.15;1.48;;;;;;;30.38;40.62;99682.81;5019130;28;20018;-91
2022/07/31 12:04:23;;;;;;;2.40;1.40;;;;;;;30.40;40.89;99680.81;5001539;28;20026;-91
2022/07/31 12:06:58;;;;;;;1.90;1.38;;;;;;;30.40;40.64;99675.41;5002066;28;20042;-90
2022/07/31 12:09:27;;;;;;;1.90;1.40;;;;;;;30.42;40.74;99676.97;5018380;28;20026;-91
2022/07/31 12:11:55;;;;;;;1.80;1.38;;;;;;;30.45;40.67;99672.28;5001392;28;20022;-91
2022/07/31 12:14:43;;;;;;;1.95;1.30;;;;;;;30.47;40.92;99670.28;5000858;28;20034;-90
2022/07/31 12:17:28;;;;;;;2.30;1.45;;;;;;;30.48;40.60;99662.06;4997713;28;20096;-91
2022/07/31 12:20:08;;;;;;;1.75;1.30;;;;;;;30.52;40.70;99668.00;4997550;28;20038;-91
2022/07/31 12:22:35;;;;;;;1.98;1.48;;;;;;;30.53;40.55;99658.91;4998304;28;20031;-91
2022/07/31 12:25:11;;;;;;;1.92;1.20;;;;;;;30.55;40.48;99656.91;4999083;28;20026;-92
2022/07/31 12:27:41;;;;;;;1.95;1.20;;;;;;;30.55;40.66;99652.38;4998731;28;20007;-90
2022/07/31 12:30:16;;;;;;;1.50;1.30;;;;;;;30.59;40.34;99646.69;4998681;28;20039;-91
2022/07/31 12:32:41;;;;;;;1.55;1.23;;;;;;;30.60;40.59;99645.69;4998117;28;20127;-91
2022/07/31 12:35:08;;;;;;;1.77;1.23;;;;;;;30.62;40.66;99646.38;4998379;28;20063;-92
2022/07/31 12:37:48;;;;;;;2.00;1.30;;;;;;;30.63;40.48;99637.28;4998774;28;20028;-91
2022/07/31 12:40:25;;;;;;;1.70;1.38;;;;;;;30.65;40.41;99643.38;4997945;28;20038;-90
2022/07/31 12:42:52;;;;;;;2.40;1.30;;;;;;;30.67;40.88;99636.00;4982302;28;20027;-91
2022/07/31 12:45:40;;;;;;;2.03;1.50;;;;;;;30.68;40.55;99629.59;4998824;28;20030;-91
2022/07/31 12:48:07;;;;;;;2.30;1.42;;;;;;;30.72;40.56;99636.41;4998293;28;20031;-90
2022/07/31 12:50:33;;;;;;;1.70;1.35;;;;;;;30.71;40.89;99632.03;4981542;28;20061;-91
2022/07/31 12:53:24;;;;;;;2.53;1.50;;;;;;;30.72;40.96;99625.66;4998877;28;20023;-93
2022/07/31 12:56:22;;;;;;;2.22;1.67;;;;;;;30.75;40.37;99630.69;4997340;28;20039;-91
2022/07/31 12:59:22;;;;;;;2.08;1.42;;;;;;;30.76;40.46;99632.41;4998537;28;20041;-91
2022/07/31 13:01:48;;;;;;;2.58;1.52;;;;;;;30.80;40.71;99627.56;4997002;28;20035;-91
2022/07/31 13:04:22;;;;;;;2.42;1.40;;;;;;;30.81;40.70;99613.91;4997590;28;20090;-92
2022/07/31 13:07:09;;;;;;;2.83;1.60;;;;;;;30.83;40.52;99610.25;4998069;28;20037;-90
2022/07/31 13:09:38;;;;;;;1.60;1.20;;;;;;;30.84;40.83;99593.09;4995852;28;20062;-92
2022/07/31 13:12:08;;;;;;;1.50;1.20;;;;;;;30.86;40.74;99599.16;4998237;28;20034;-91
2022/07/31 13:14:45;;;;;;;2.20;1.50;;;;;;;30.86;40.63;99585.69;4997230;28;20039;-91
2022/07/31 13:17:14;;;;;;;1.63;1.20;;;;;;;30.89;40.71;99593.47;4983701;28;20092;-91
2022/07/31 13:19:41;;;;;;;1.73;1.27;;;;;;;30.91;40.43;99596.84;5003930;28;20048;-91
2022/07/31 13:22:07;;;;;;;1.73;1.17;;;;;;;30.93;40.50;99594.81;5001004;28;20049;-92
2022/07/31 13:24:50;;;;;;;1.95;1.27;;;;;;;30.94;40.83;99591.16;5001474;28;20026;-92
2022/07/31 13:27:17;;;;;;;2.72;1.48;;;;;;;30.97;40.31;99592.69;4985356;28;20058;-93
2022/07/31 13:29:44;;;;;;;1.85;1.40;;;;;;;30.98;40.51;99589.81;5001234;28;20055;-92
2022/07/31 13:32:11;;;;;;;1.95;1.20;;;;;;;31.01;40.62;99584.13;5000817;28;20037;-91
2022/07/31 13:34:39;;;;;;;2.20;1.40;;;;;;;31.03;40.49;99582.13;5001349;28;20033;-90
2022/07/31 13:37:07;;;;;;;1.48;1.20;;;;;;;31.05;40.68;99582.78;4984233;28;20090;-91
2022/07/31 13:39:36;;;;;;;2.00;1.30;;;;;;;31.07;40.60;99580.81;4969890;28;20022;-91
2022/07/31 13:42:05;;;;;;;1.90;1.30;;;;;;;31.07;40.52;99575.41;4998694;28;20102;-91
2022/07/31 13:44:43;;;;;;;1.40;1.17;;;;;;;31.08;40.29;99571.72;5015427;28;20049;-90
2022/07/31 13:47:12;;;;;;;2.08;1.35;;;;;;;31.12;40.39;99571.41;4998414;28;20068;-91
2022/07/31 13:49:42;;;;;;;2.67;1.33;;;;;;;31.13;40.70;99567.69;4982307;28;20031;-91
2022/07/31 13:52:08;;;;;;;1.42;1.00;;;;;;;31.16;40.58;99561.97;4996477;28;20076;-90
2022/07/31 13:54:42;;;;;;;1.80;1.08;;;;;;;31.17;40.28;99552.88;4982939;28;20030;-90
2022/07/31 13:57:11;;;;;;;1.60;1.10;;;;;;;31.19;40.24;99557.13;4999273;28;20065;-91
2022/07/31 13:59:37;;;;;;;1.73;1.30;;;;;;;31.20;40.36;99552.59;4984048;28;20014;-92
2022/07/31 14:02:03;;;;;;;1.95;1.30;;;;;;;31.20;40.31;99545.34;4980935;28;20036;-91
2022/07/31 14:04:33;;;;;;;2.33;1.35;;;;;;;31.23;40.35;99535.25;4997179;28;20014;-91
2022/07/31 14:07:01;;;;;;;1.40;1.10;;;;;;;31.24;40.44;99532.41;4996460;28;20057;-93
2022/07/31 14:09:27;;;;;;;2.05;1.00;;;;;;;31.25;40.46;99527.84;4996542;28;20092;-91
2022/07/31 14:11:58;;;;;;;1.90;1.10;;;;;;;31.26;40.26;99530.38;4994229;28;20033;-92
2022/07/31 14:14:24;;;;;;;2.05;1.30;;;;;;;31.29;40.29;99524.72;4995500;28;20125;-91
2022/07/31 14:16:52;;;;;;;1.60;1.17;;;;;;;31.29;40.14;99519.31;4995099;28;20058;-92
2022/07/31 14:22:41;;;;;;;1.98;1.23;;;;;;;31.35;40.55;99517.81;5012311;28;20045;-90
2022/07/31 14:25:21;;;;;;;1.85;1.20;;;;;;;31.34;40.44;99511.56;4994486;28;20030;-90
2022/07/31 14:27:52;;;;;;;1.88;1.20;;;;;;;31.37;40.26;99514.97;4993987;28;20054;-91
2022/07/31 14:30:21;;;;;;;1.92;1.30;;;;;;;31.38;40.18;99498.66;5007678;28;20034;-91
2022/07/31 14:32:52;;;;;;;2.08;1.20;;;;;;;31.39;40.32;99492.25;4992277;28;20446;-91
2022/07/31 14:35:18;;;;;;;1.90;1.30;;;;;;;31.41;40.37;99495.59;4992796;28;20026;-91
2022/07/31 14:37:45;;;;;;;2.25;1.30;;;;;;;31.42;40.21;99491.06;4976258;28;20049;-91
2022/07/31 14:40:11;;;;;;;1.23;1.08;;;;;;;31.44;40.27;99494.44;4991753;28;20034;-91
2022/07/31 14:42:40;;;;;;;1.75;1.30;;;;;;;31.45;40.38;99496.97;5006995;28;20041;-90
2022/07/31 14:45:24;;;;;;;1.65;1.10;;;;;;;31.48;40.38;99495.81;4975553;28;20042;-91
2022/07/31 14:47:49;;;;;;;2.40;1.15;;;;;;;31.47;40.33;99497.66;4990697;28;20045;-91
2022/07/31 14:50:38;;;;;;;1.75;1.20;;;;;;;31.49;40.14;99492.09;4991870;28;20030;-90
2022/07/31 14:53:08;;;;;;;1.90;1.20;;;;;;;31.51;40.24;99490.06;4988649;28;20026;-91
2022/07/31 14:55:37;;;;;;;2.35;1.30;;;;;;;31.53;40.36;99489.94;4987319;28;20030;-90
2022/07/31 14:58:07;;;;;;;1.25;1.02;;;;;;;31.54;40.28;99492.47;5003370;28;20030;-90
2022/07/31 15:00:40;;;;;;;2.40;1.30;;;;;;;31.55;40.16;99486.06;4991472;28;20094;-90
2022/07/31 15:03:32;;;;;;;1.30;1.00;;;;;;;31.57;40.21;99480.50;4991742;28;20042;-92
2022/07/31 15:06:01;;;;;;;1.70;1.13;;;;;;;31.57;40.27;99473.25;4990336;28;20065;-91
2022/07/31 15:08:28;;;;;;;1.45;1.00;;;;;;;31.58;40.27;99469.53;4989164;28;20104;-91
2022/07/31 15:10:56;;;;;;;1.35;0.90;;;;;;;31.59;40.09;99473.09;4988092;28;20025;-91
2022/07/31 15:13:23;;;;;;;1.55;1.15;;;;;;;31.60;40.21;99467.53;4988352;28;20030;-92
2022/07/31 15:15:48;;;;;;;1.80;1.10;;;;;;;31.63;40.26;99470.91;4987902;28;20060;-91
2022/07/31 15:18:14;;;;;;;1.60;1.00;;;;;;;31.61;40.40;99474.63;4984260;28;20086;-92
2022/07/31 15:20:40;;;;;;;2.03;1.20;;;;;;;31.65;40.36;99477.00;4983073;28;20473;-91
2022/07/31 15:23:17;;;;;;;1.83;1.10;;;;;;;31.65;40.22;99463.50;4984159;28;20038;-91
2022/07/31 15:26:08;;;;;;;1.90;1.33;;;;;;;31.66;40.18;99465.19;4982986;28;20363;-91
2022/07/31 15:28:38;;;;;;;1.23;0.88;;;;;;;31.68;40.18;99468.56;4984276;28;20084;-90
2022/07/31 15:31:05;;;;;;;1.58;1.02;;;;;;;31.69;40.04;99462.16;4983994;28;20117;-91
2022/07/31 15:33:40;;;;;;;1.42;1.10;;;;;;;31.70;40.27;99462.00;4983294;28;20045;-91
2022/07/31 15:36:24;;;;;;;1.30;1.02;;;;;;;31.72;40.24;99459.16;4984731;28;20038;-91
2022/07/31 15:38:50;;;;;;;1.42;1.00;;;;;;;31.72;40.21;99464.53;4986732;28;20086;-91
2022/07/31 15:41:30;;;;;;;1.35;1.00;;;;;;;31.74;40.18;99451.72;4990318;28;20038;-91
2022/07/31 15:44:20;;;;;;;1.83;0.88;;;;;;;31.74;40.30;99446.31;4990911;28;20101;-91
2022/07/31 15:46:52;;;;;;;1.40;0.95;;;;;;;31.74;40.26;99449.88;4993225;28;20040;-92
2022/07/31 15:59:18;;;;;;;2.15;1.17;;;;;;;31.80;40.39;99439.44;4988517;28;20053;-91
2022/07/31 16:01:58;;;;;;;1.80;1.17;;;;;;;31.80;40.28;99434.03;4987946;28;20100;-91
2022/07/31 16:04:29;;;;;;;1.80;1.10;;;;;;;31.81;40.16;99435.72;4988706;28;20031;-92
2022/07/31 16:06:55;;;;;;;2.08;1.25;;;;;;;31.81;40.15;99425.75;4985513;28;20178;-92
2022/07/31 16:09:24;;;;;;;1.92;1.10;;;;;;;31.83;40.21;99433.69;4984450;28;20078;-91
2022/07/31 16:13:10;;;;;;;1.45;1.10;;;;;;;31.83;40.26;99429.16;4983804;28;20450;-91
2022/07/31 16:15:28;;;;;;;1.38;0.93;;;;;;;31.83;40.10;99426.47;4981613;28;20058;-91
2022/07/31 16:17:56;;;;;;;1.75;1.30;;;;;;;31.85;40.19;99427.16;4983370;28;20125;-91
2022/07/31 16:20:22;;;;;;;1.67;1.10;;;;;;;31.84;40.39;99425.47;4983969;28;20058;-90
2022/07/31 16:22:52;;;;;;;1.17;0.80;;;;;;;31.86;40.13;99422.63;4984043;28;20450;-91
2022/07/31 16:25:20;;;;;;;1.50;0.88;;;;;;;31.87;40.42;99435.09;4982796;28;20027;-91
2022/07/31 16:27:46;;;;;;;1.90;1.13;;;;;;;31.87;40.20;99424.31;4983439;28;20034;-91
2022/07/31 16:30:21;;;;;;;1.67;1.20;;;;;;;31.86;40.22;99423.44;4985316;28;20038;-91
2022/07/31 16:32:48;;;;;;;;;;;;;;;31.90;40.29;99417.72;4983209;28;20113;-91
2022/07/31 16:35:25;;;;;;;1.88;0.95;;;;;;;31.91;40.14;99422.09;4983231;28;19932;-91
2022/07/31 16:38:04;;;;;;;1.55;1.00;;;;;;;31.89;40.28;99406.09;4983515;28;20463;-91
2022/07/31 16:40:33;;;;;;;1.20;1.00;;;;;;;31.92;40.18;99413.00;4982994;28;20038;-90
2022/07/31 16:43:27;;;;;;;1.35;1.08;;;;;;;31.92;40.48;99423.78;4982870;28;20058;-91
2022/07/31 16:45:57;;;;;;;1.92;1.00;;;;;;;31.92;40.34;99415.69;4983354;28;20023;-91
2022/07/31 16:48:34;;;;;;;1.10;0.90;;;;;;;31.93;40.04;99414.69;4985816;28;20119;-89
2022/07/31 16:51:30;;;;;;;2.00;1.30;;;;;;;31.93;40.30;99417.38;4985355;28;20026;-90
2022/07/31 16:54:09;;;;;;;1.40;1.00;;;;;;;31.93;40.40;99411.97;4985708;28;20034;-92
2022/07/31 16:56:54;;;;;;;0.63;0.60;;;;;;;31.94;40.09;99413.66;4988269;28;20038;-90
2022/07/31 16:59:19;;;;;;;2.15;1.10;;;;;;;31.94;40.34;99413.66;4986552;28;20056;-92
2022/07/31 17:01:45;;;;;;;1.50;0.77;;;;;;;31.95;40.32;99415.38;4988965;28;20141;-92
2022/07/31 17:04:12;;;;;;;1.48;0.90;;;;;;;31.95;40.10;99415.38;4988919;28;20110;-90
2022/07/31 17:06:44;;;;;;;1.80;1.00;;;;;;;31.96;40.32;99419.75;4986398;28;20117;-92
2022/07/31 17:09:12;;;;;;;1.50;1.02;;;;;;;31.96;39.99;99417.06;4984759;28;20026;-91